sensor_id;sensor_type;location;lat;lon;timestamp;pressure;altitude;pressure_sealevel;temperature;humidity
46291;BME280;32023;44.444;26.006;2023-04-07T00:01:02;100110.31;;;3.80;61.91
46291;BME280;32023;44.444;26.006;2023-04-07T00:03:45;100114.34;;;3.71;61.72
46291;BME280;32023;44.444;26.006;2023-04-07T00:06:12;100112.06;;;3.68;61.96
46291;BME280;32023;44.444;26.006;2023-04-07T00:08:46;100104.50;;;3.70;62.20
46291;BME280;32023;44.444;26.006;2023-04-07T00:11:16;100109.94;;;3.70;62.59
46291;BME280;32023;44.444;26.006;2023-04-07T00:13:55;100113.56;;;3.64;62.78
46291;BME280;32023;44.444;26.006;2023-04-07T00:16:26;100107.72;;;3.61;62.78
46291;BME280;32023;44.444;26.006;2023-04-07T00:18:55;100113.84;;;3.56;62.71
46291;BME280;32023;44.444;26.006;2023-04-07T00:21:25;100114.28;;;3.53;63.00
46291;BME280;32023;44.444;26.006;2023-04-07T00:27:00;100122.31;;;3.42;63.38
46291;BME280;32023;44.444;26.006;2023-04-07T00:29:59;100117.31;;;3.38;63.29
46291;BME280;32023;44.444;26.006;2023-04-07T00:32:27;100117.50;;;3.37;63.89
46291;BME280;32023;44.444;26.006;2023-04-07T00:34:54;100121.53;;;3.34;63.92
46291;BME280;32023;44.444;26.006;2023-04-07T00:37:29;100110.00;;;3.32;64.04
46291;BME280;32023;44.444;26.006;2023-04-07T00:39:56;100114.19;;;3.35;63.88
46291;BME280;32023;44.444;26.006;2023-04-07T00:42:31;100116.72;;;3.30;64.07
46291;BME280;32023;44.444;26.006;2023-04-07T00:44:58;100119.69;;;3.22;64.76
46291;BME280;32023;44.444;26.006;2023-04-07T00:47:24;100120.78;;;3.21;64.39
46291;BME280;32023;44.444;26.006;2023-04-07T00:49:51;100113.66;;;3.20;64.61
46291;BME280;32023;44.444;26.006;2023-04-07T00:52:18;100114.50;;;3.14;65.17
46291;BME280;32023;44.444;26.006;2023-04-07T00:55:09;100115.59;;;3.13;64.70
46291;BME280;32023;44.444;26.006;2023-04-07T00:57:38;100117.06;;;3.09;64.75
46291;BME280;32023;44.444;26.006;2023-04-07T01:00:10;100121.88;;;3.07;65.03
46291;BME280;32023;44.444;26.006;2023-04-07T01:11:21;100118.19;;;2.95;66.06
46291;BME280;32023;44.444;26.006;2023-04-07T01:13:52;100115.69;;;2.93;65.94
46291;BME280;32023;44.444;26.006;2023-04-07T01:16:27;100109.59;;;2.91;66.11
46291;BME280;32023;44.444;26.006;2023-04-07T01:19:00;100105.25;;;2.90;66.15
46291;BME280;32023;44.444;26.006;2023-04-07T01:21:34;100108.81;;;2.90;66.51
46291;BME280;32023;44.444;26.006;2023-04-07T01:30:15;100102.91;;;2.94;66.71
46291;BME280;32023;44.444;26.006;2023-04-07T01:32:48;100107.91;;;2.97;67.03
46291;BME280;32023;44.444;26.006;2023-04-07T01:35:21;100098.72;;;2.98;66.90
46291;BME280;32023;44.444;26.006;2023-04-07T01:37:56;100093.28;;;2.98;67.30
46291;BME280;32023;44.444;26.006;2023-04-07T01:40:25;100100.75;;;3.02;67.21
46291;BME280;32023;44.444;26.006;2023-04-07T01:42:52;100094.50;;;3.02;67.24
46291;BME280;32023;44.444;26.006;2023-04-07T01:45:29;100097.84;;;3.04;67.53
46291;BME280;32023;44.444;26.006;2023-04-07T01:47:57;100090.72;;;3.09;67.57
46291;BME280;32023;44.444;26.006;2023-04-07T01:53:24;100092.94;;;3.19;67.48
46291;BME280;32023;44.444;26.006;2023-04-07T01:56:01;100083.09;;;3.18;67.73
46291;BME280;32023;44.444;26.006;2023-04-07T01:58:31;100090.41;;;3.17;67.67
46291;BME280;32023;44.444;26.006;2023-04-07T02:00:58;100091.06;;;3.19;68.37
46291;BME280;32023;44.444;26.006;2023-04-07T02:03:50;100093.13;;;3.24;68.43
46291;BME280;32023;44.444;26.006;2023-04-07T02:06:23;100092.72;;;3.20;68.93
46291;BME280;32023;44.444;26.006;2023-04-07T02:08:58;100088.91;;;3.28;68.52
46291;BME280;32023;44.444;26.006;2023-04-07T02:11:28;100086.78;;;3.30;68.82
46291;BME280;32023;44.444;26.006;2023-04-07T02:13:58;100083.22;;;3.36;68.74
46291;BME280;32023;44.444;26.006;2023-04-07T02:16:28;100080.50;;;3.36;68.98
46291;BME280;32023;44.444;26.006;2023-04-07T02:18:56;100091.53;;;3.41;69.26
46291;BME280;32023;44.444;26.006;2023-04-07T02:21:24;100088.38;;;3.44;69.02
46291;BME280;32023;44.444;26.006;2023-04-07T02:23:51;100085.66;;;3.44;69.40
46291;BME280;32023;44.444;26.006;2023-04-07T02:26:17;100079.78;;;3.47;69.64
46291;BME280;32023;44.444;26.006;2023-04-07T02:28:43;100085.63;;;3.51;69.50
46291;BME280;32023;44.444;26.006;2023-04-07T02:31:17;100086.47;;;3.51;70.22
46291;BME280;32023;44.444;26.006;2023-04-07T02:33:49;100082.66;;;3.52;70.15
46291;BME280;32023;44.444;26.006;2023-04-07T02:36:19;100091.44;;;3.54;70.25
46291;BME280;32023;44.444;26.006;2023-04-07T02:38:48;100089.19;;;3.51;70.76
46291;BME280;32023;44.444;26.006;2023-04-07T02:41:15;100082.91;;;3.51;70.81
46291;BME280;32023;44.444;26.006;2023-04-07T02:43:41;100088.94;;;3.53;71.33
46291;BME280;32023;44.444;26.006;2023-04-07T02:46:10;100087.25;;;3.52;71.38
46291;BME280;32023;44.444;26.006;2023-04-07T02:48:42;100092.88;;;3.57;71.02
46291;BME280;32023;44.444;26.006;2023-04-07T02:51:13;100089.34;;;3.56;71.32
46291;BME280;32023;44.444;26.006;2023-04-07T02:53:40;100098.72;;;3.60;71.67
46291;BME280;32023;44.444;26.006;2023-04-07T02:56:08;100090.78;;;3.59;71.70
46291;BME280;32023;44.444;26.006;2023-04-07T02:58:42;100099.13;;;3.64;71.74
46291;BME280;32023;44.444;26.006;2023-04-07T03:01:16;100107.47;;;3.69;71.35
46291;BME280;32023;44.444;26.006;2023-04-07T03:03:42;100096.31;;;3.70;71.94
46291;BME280;32023;44.444;26.006;2023-04-07T03:06:13;100096.50;;;3.75;71.06
46291;BME280;32023;44.444;26.006;2023-04-07T03:08:41;100102.28;;;3.85;71.41
46291;BME280;32023;44.444;26.006;2023-04-07T03:11:07;100103.09;;;3.93;70.96
46291;BME280;32023;44.444;26.006;2023-04-07T03:13:34;100104.13;;;3.92;71.30
46291;BME280;32023;44.444;26.006;2023-04-07T03:16:13;100101.34;;;3.98;71.31
46291;BME280;32023;44.444;26.006;2023-04-07T03:18:49;100099.66;;;3.97;71.13
46291;BME280;32023;44.444;26.006;2023-04-07T03:21:46;100105.56;;;3.94;71.63
46291;BME280;32023;44.444;26.006;2023-04-07T03:24:17;100105.56;;;3.94;71.56
46291;BME280;32023;44.444;26.006;2023-04-07T03:26:54;100111.06;;;3.87;72.35
46291;BME280;32023;44.444;26.006;2023-04-07T03:29:29;100113.16;;;3.85;72.68
46291;BME280;32023;44.444;26.006;2023-04-07T03:31:58;100123.66;;;3.88;73.15
46291;BME280;32023;44.444;26.006;2023-04-07T03:34:28;100121.97;;;3.87;73.23
46291;BME280;32023;44.444;26.006;2023-04-07T03:37:11;100124.53;;;3.82;73.75
46291;BME280;32023;44.444;26.006;2023-04-07T03:39:48;100123.56;;;3.70;75.17
46291;BME280;32023;44.444;26.006;2023-04-07T03:42:14;100126.28;;;3.70;75.57
46291;BME280;32023;44.444;26.006;2023-04-07T03:44:44;100133.66;;;3.70;76.02
46291;BME280;32023;44.444;26.006;2023-04-07T03:47:10;100139.34;;;3.62;77.33
46291;BME280;32023;44.444;26.006;2023-04-07T03:49:41;100137.03;;;3.65;77.49
46291;BME280;32023;44.444;26.006;2023-04-07T03:52:07;100144.78;;;3.62;78.09
46291;BME280;32023;44.444;26.006;2023-04-07T03:54:34;100145.19;;;3.65;78.52
46291;BME280;32023;44.444;26.006;2023-04-07T03:57:06;100141.41;;;3.66;78.81
46291;BME280;32023;44.444;26.006;2023-04-07T03:59:41;100146.06;;;3.59;79.56
46291;BME280;32023;44.444;26.006;2023-04-07T04:02:08;100145.63;;;3.62;79.36
46291;BME280;32023;44.444;26.006;2023-04-07T04:04:41;100156.13;;;3.59;79.78
46291;BME280;32023;44.444;26.006;2023-04-07T04:07:07;100150.25;;;3.55;80.17
46291;BME280;32023;44.444;26.006;2023-04-07T04:09:34;100157.38;;;3.56;80.53
46291;BME280;32023;44.444;26.006;2023-04-07T04:12:00;100161.13;;;3.62;80.80
46291;BME280;32023;44.444;26.006;2023-04-07T04:14:29;100163.66;;;3.57;80.46
46291;BME280;32023;44.444;26.006;2023-04-07T04:17:08;100163.34;;;3.40;80.85
46291;BME280;32023;44.444;26.006;2023-04-07T04:19:38;100163.78;;;3.37;81.34
46291;BME280;32023;44.444;26.006;2023-04-07T04:22:07;100166.06;;;3.40;81.10
46291;BME280;32023;44.444;26.006;2023-04-07T04:24:41;100171.34;;;3.35;80.19
46291;BME280;32023;44.444;26.006;2023-04-07T04:27:08;100166.06;;;3.40;79.94
46291;BME280;32023;44.444;26.006;2023-04-07T04:29:36;100174.22;;;3.47;79.32
46291;BME280;32023;44.444;26.006;2023-04-07T04:32:03;100180.91;;;3.44;79.19
46291;BME280;32023;44.444;26.006;2023-04-07T04:34:31;100178.63;;;3.41;78.91
46291;BME280;32023;44.444;26.006;2023-04-07T04:36:59;100186.59;;;3.43;78.40
46291;BME280;32023;44.444;26.006;2023-04-07T04:39:31;100189.69;;;3.46;78.51
46291;BME280;32023;44.444;26.006;2023-04-07T04:42:04;100164.72;;;3.24;78.08
46291;BME280;32023;44.444;26.006;2023-04-07T04:44:34;100200.59;;;3.46;77.86
46291;BME280;32023;44.444;26.006;2023-04-07T04:47:09;100208.56;;;3.41;76.58
46291;BME280;32023;44.444;26.006;2023-04-07T04:49:40;100207.72;;;3.47;76.42
46291;BME280;32023;44.444;26.006;2023-04-07T04:52:10;100215.84;;;3.54;76.22
46291;BME280;32023;44.444;26.006;2023-04-07T04:54:39;100205.16;;;3.52;75.67
46291;BME280;32023;44.444;26.006;2023-04-07T04:57:06;100208.53;;;3.48;74.89
46291;BME280;32023;44.444;26.006;2023-04-07T04:59:39;100212.91;;;3.49;75.44
46291;BME280;32023;44.444;26.006;2023-04-07T05:02:05;100215.84;;;3.54;75.57
46291;BME280;32023;44.444;26.006;2023-04-07T05:04:32;100221.03;;;3.55;75.21
46291;BME280;32023;44.444;26.006;2023-04-07T05:07:02;100227.50;;;3.61;75.04
46291;BME280;32023;44.444;26.006;2023-04-07T05:09:35;100229.78;;;3.64;74.37
46291;BME280;32023;44.444;26.006;2023-04-07T05:12:02;100233.75;;;3.68;75.18
46291;BME280;32023;44.444;26.006;2023-04-07T05:14:31;100243.38;;;3.70;75.21
46291;BME280;32023;44.444;26.006;2023-04-07T05:16:57;100241.47;;;3.71;74.73
46291;BME280;32023;44.444;26.006;2023-04-07T05:19:25;100243.56;;;3.75;74.77
46291;BME280;32023;44.444;26.006;2023-04-07T05:22:02;100247.91;;;3.83;75.01
46291;BME280;32023;44.444;26.006;2023-04-07T05:24:31;100248.50;;;3.92;74.83
46291;BME280;32023;44.444;26.006;2023-04-07T05:27:04;100260.00;;;3.94;74.36
46291;BME280;32023;44.444;26.006;2023-04-07T05:29:36;100250.97;;;4.00;74.35
46291;BME280;32023;44.444;26.006;2023-04-07T05:32:05;100251.75;;;4.07;74.11
46291;BME280;32023;44.444;26.006;2023-04-07T05:34:36;100258.44;;;4.11;74.10
46291;BME280;32023;44.444;26.006;2023-04-07T05:37:06;100257.06;;;4.20;73.53
46291;BME280;32023;44.444;26.006;2023-04-07T05:39:32;100262.06;;;4.29;74.02
46291;BME280;32023;44.444;26.006;2023-04-07T05:42:00;100251.72;;;4.38;73.47
46291;BME280;32023;44.444;26.006;2023-04-07T05:44:44;100253.47;;;4.51;73.04
46291;BME280;32023;44.444;26.006;2023-04-07T05:47:10;100257.53;;;4.66;72.51
46291;BME280;32023;44.444;26.006;2023-04-07T05:49:37;100253.69;;;4.74;72.42
46291;BME280;32023;44.444;26.006;2023-04-07T05:52:14;100263.09;;;4.78;71.75
46291;BME280;32023;44.444;26.006;2023-04-07T05:54:40;100269.97;;;4.80;71.79
46291;BME280;32023;44.444;26.006;2023-04-07T05:57:07;100267.44;;;4.85;71.48
46291;BME280;32023;44.444;26.006;2023-04-07T05:59:41;100272.44;;;4.89;71.26
46291;BME280;32023;44.444;26.006;2023-04-07T06:02:07;100275.16;;;4.89;70.58
46291;BME280;32023;44.444;26.006;2023-04-07T06:04:37;100281.53;;;5.01;70.22
46291;BME280;32023;44.444;26.006;2023-04-07T06:07:07;100281.53;;;5.01;69.94
46291;BME280;32023;44.444;26.006;2023-04-07T06:09:33;100271.94;;;4.98;70.09
46291;BME280;32023;44.444;26.006;2023-04-07T06:12:01;100276.38;;;5.11;70.59
46291;BME280;32023;44.444;26.006;2023-04-07T06:14:30;100282.31;;;5.26;68.91
46291;BME280;32023;44.444;26.006;2023-04-07T06:16:56;100285.13;;;5.38;68.47
46291;BME280;32023;44.444;26.006;2023-04-07T06:19:22;100285.66;;;5.46;67.93
46291;BME280;32023;44.444;26.006;2023-04-07T06:21:49;100282.63;;;5.54;67.39
46291;BME280;32023;44.444;26.006;2023-04-07T06:24:15;100289.47;;;5.75;67.40
46291;BME280;32023;44.444;26.006;2023-04-07T06:26:43;100288.94;;;5.85;66.14
46291;BME280;32023;44.444;26.006;2023-04-07T06:29:12;100285.38;;;6.02;65.19
46291;BME280;32023;44.444;26.006;2023-04-07T06:31:49;100278.78;;;6.21;64.83
46291;BME280;32023;44.444;26.006;2023-04-07T06:34:16;100288.78;;;6.39;64.15
46291;BME280;32023;44.444;26.006;2023-04-07T06:36:43;100298.34;;;6.48;63.00
46291;BME280;32023;44.444;26.006;2023-04-07T06:39:10;100301.16;;;6.30;62.68
46291;BME280;32023;44.444;26.006;2023-04-07T06:41:37;100300.34;;;6.41;63.52
46291;BME280;32023;44.444;26.006;2023-04-07T06:44:09;100304.72;;;6.42;62.86
46291;BME280;32023;44.444;26.006;2023-04-07T06:46:44;100316.03;;;6.34;61.42
46291;BME280;32023;44.444;26.006;2023-04-07T06:49:22;100320.78;;;6.39;62.00
46291;BME280;32023;44.444;26.006;2023-04-07T06:52:00;100317.75;;;6.58;61.46
46291;BME280;32023;44.444;26.006;2023-04-07T06:54:26;100326.47;;;6.90;60.86
46291;BME280;32023;44.444;26.006;2023-04-07T06:56:55;100316.59;;;7.12;58.97
46291;BME280;32023;44.444;26.006;2023-04-07T06:59:33;100313.72;;;7.42;58.60
46291;BME280;32023;44.444;26.006;2023-04-07T07:02:13;100327.13;;;7.67;56.14
46291;BME280;32023;44.444;26.006;2023-04-07T07:04:51;100318.78;;;7.73;55.73
46291;BME280;32023;44.444;26.006;2023-04-07T07:07:21;100317.63;;;7.98;55.44
46291;BME280;32023;44.444;26.006;2023-04-07T07:09:55;100317.84;;;8.08;53.20
46291;BME280;32023;44.444;26.006;2023-04-07T07:12:47;100317.75;;;8.19;52.94
46291;BME280;32023;44.444;26.006;2023-04-07T07:15:23;100324.91;;;8.32;52.79
46291;BME280;32023;44.444;26.006;2023-04-07T07:18:15;100329.06;;;8.35;51.44
46291;BME280;32023;44.444;26.006;2023-04-07T07:20:44;100317.28;;;8.34;52.11
46291;BME280;32023;44.444;26.006;2023-04-07T07:23:19;100334.34;;;8.53;50.91
46291;BME280;32023;44.444;26.006;2023-04-07T07:25:56;100334.59;;;8.51;50.91
46291;BME280;32023;44.444;26.006;2023-04-07T07:28:23;100337.03;;;8.64;50.59
46291;BME280;32023;44.444;26.006;2023-04-07T07:31:20;100335.47;;;8.68;50.20
46291;BME280;32023;44.444;26.006;2023-04-07T07:33:46;100352.09;;;8.95;49.75
46291;BME280;32023;44.444;26.006;2023-04-07T07:36:35;100349.53;;;8.89;49.30
46291;BME280;32023;44.444;26.006;2023-04-07T07:39:10;100358.59;;;9.06;48.45
46291;BME280;32023;44.444;26.006;2023-04-07T07:41:49;100359.75;;;9.27;47.91
46291;BME280;32023;44.444;26.006;2023-04-07T07:44:16;100357.91;;;9.32;47.22
46291;BME280;32023;44.444;26.006;2023-04-07T07:46:45;100357.41;;;9.35;46.37
46291;BME280;32023;44.444;26.006;2023-04-07T07:49:11;100361.09;;;9.24;45.32
46291;BME280;32023;44.444;26.006;2023-04-07T07:51:38;100364.56;;;9.03;47.01
46291;BME280;32023;44.444;26.006;2023-04-07T07:57:16;100359.50;;;8.78;47.92
46291;BME280;32023;44.444;26.006;2023-04-07T07:59:42;100370.50;;;8.95;46.57
46291;BME280;32023;44.444;26.006;2023-04-07T08:02:11;100373.66;;;9.03;46.65
46291;BME280;32023;44.444;26.006;2023-04-07T08:04:50;100376.66;;;9.02;45.53
46291;BME280;32023;44.444;26.006;2023-04-07T08:07:20;100373.16;;;9.23;45.82
46291;BME280;32023;44.444;26.006;2023-04-07T08:09:49;100365.03;;;9.50;45.77
46291;BME280;32023;44.444;26.006;2023-04-07T08:12:16;100373.47;;;9.82;41.74
46291;BME280;32023;44.444;26.006;2023-04-07T08:14:45;100369.31;;;10.01;42.18
46291;BME280;32023;44.444;26.006;2023-04-07T08:17:23;100377.63;;;10.06;41.40
46291;BME280;32023;44.444;26.006;2023-04-07T08:20:04;100367.06;;;9.98;42.13
46291;BME280;32023;44.444;26.006;2023-04-07T08:22:41;100377.13;;;9.87;40.82
46291;BME280;32023;44.444;26.006;2023-04-07T08:25:08;100391.97;;;10.08;40.93
46291;BME280;32023;44.444;26.006;2023-04-07T08:27:36;100372.19;;;10.11;40.81
46291;BME280;32023;44.444;26.006;2023-04-07T08:30:05;100370.66;;;10.42;41.71
46291;BME280;32023;44.444;26.006;2023-04-07T08:32:40;100368.00;;;10.79;41.03
46291;BME280;32023;44.444;26.006;2023-04-07T08:35:07;100372.47;;;10.85;41.14
46291;BME280;32023;44.444;26.006;2023-04-07T08:37:39;100373.22;;;11.07;39.54
46291;BME280;32023;44.444;26.006;2023-04-07T08:40:10;100370.09;;;11.30;39.62
46291;BME280;32023;44.444;26.006;2023-04-07T08:42:45;100370.06;;;11.67;38.12
46291;BME280;32023;44.444;26.006;2023-04-07T08:45:12;100376.59;;;11.98;36.84
46291;BME280;32023;44.444;26.006;2023-04-07T08:47:42;100372.53;;;11.64;36.15
46291;BME280;32023;44.444;26.006;2023-04-07T08:50:10;100381.06;;;11.20;36.82
46291;BME280;32023;44.444;26.006;2023-04-07T08:52:50;100373.66;;;10.94;38.22
46291;BME280;32023;44.444;26.006;2023-04-07T08:55:18;100383.66;;;11.37;38.36
46291;BME280;32023;44.444;26.006;2023-04-07T08:57:51;100380.81;;;11.64;37.21
46291;BME280;32023;44.444;26.006;2023-04-07T09:00:18;100380.84;;;12.16;37.18
46291;BME280;32023;44.444;26.006;2023-04-07T09:02:44;100377.31;;;12.35;35.42
46291;BME280;32023;44.444;26.006;2023-04-07T09:05:16;100379.31;;;12.55;36.88
46291;BME280;32023;44.444;26.006;2023-04-07T09:07:43;100388.50;;;12.86;36.50
46291;BME280;32023;44.444;26.006;2023-04-07T09:10:09;100394.56;;;12.83;34.47
46291;BME280;32023;44.444;26.006;2023-04-07T09:12:41;100397.06;;;12.89;35.22
46291;BME280;32023;44.444;26.006;2023-04-07T09:15:20;100395.69;;;12.87;35.27
46291;BME280;32023;44.444;26.006;2023-04-07T09:17:49;100394.25;;;12.69;35.25
46291;BME280;32023;44.444;26.006;2023-04-07T09:20:24;100387.44;;;13.12;35.29
46291;BME280;32023;44.444;26.006;2023-04-07T09:23:25;100393.50;;;12.99;35.02
46291;BME280;32023;44.444;26.006;2023-04-07T09:28:47;100402.06;;;13.78;35.18
46291;BME280;32023;44.444;26.006;2023-04-07T09:31:15;100409.28;;;13.19;34.64
46291;BME280;32023;44.444;26.006;2023-04-07T09:33:42;100394.84;;;12.96;35.18
46291;BME280;32023;44.444;26.006;2023-04-07T09:36:17;100407.59;;;12.87;34.04
46291;BME280;32023;44.444;26.006;2023-04-07T09:38:45;100409.53;;;13.02;34.51
46291;BME280;32023;44.444;26.006;2023-04-07T09:41:15;100405.69;;;13.23;35.08
46291;BME280;32023;44.444;26.006;2023-04-07T09:43:55;100405.13;;;13.26;34.49
46291;BME280;32023;44.444;26.006;2023-04-07T09:46:21;100404.03;;;13.27;35.16
46291;BME280;32023;44.444;26.006;2023-04-07T09:49:01;100405.34;;;12.99;34.73
46291;BME280;32023;44.444;26.006;2023-04-07T09:51:31;100418.13;;;13.31;34.17
46291;BME280;32023;44.444;26.006;2023-04-07T09:53:59;100407.59;;;12.97;34.73
46291;BME280;32023;44.444;26.006;2023-04-07T09:56:26;100402.38;;;13.36;34.80
46291;BME280;32023;44.444;26.006;2023-04-07T09:58:54;100392.31;;;13.91;33.84
46291;BME280;32023;44.444;26.006;2023-04-07T10:01:21;100415.47;;;14.84;33.12
46291;BME280;32023;44.444;26.006;2023-04-07T10:03:48;100404.28;;;14.56;32.89
46291;BME280;32023;44.444;26.006;2023-04-07T10:06:16;100427.69;;;14.19;33.78
46291;BME280;32023;44.444;26.006;2023-04-07T10:08:43;100408.47;;;13.38;33.89
46291;BME280;32023;44.444;26.006;2023-04-07T10:11:12;100422.91;;;12.43;34.77
46291;BME280;32023;44.444;26.006;2023-04-07T10:13:40;100428.59;;;11.37;36.69
46291;BME280;32023;44.444;26.006;2023-04-07T10:16:08;100446.66;;;10.65;38.86
46291;BME280;32023;44.444;26.006;2023-04-07T10:18:35;100430.97;;;10.43;40.37
46291;BME280;32023;44.444;26.006;2023-04-07T10:21:06;100446.66;;;10.65;40.75
46291;BME280;32023;44.444;26.006;2023-04-07T10:23:57;100436.25;;;10.72;40.26
46291;BME280;32023;44.444;26.006;2023-04-07T10:26:41;100431.38;;;10.79;40.30
46291;BME280;32023;44.444;26.006;2023-04-07T10:29:13;100429.03;;;10.44;40.41
46291;BME280;32023;44.444;26.006;2023-04-07T10:31:54;100444.00;;;10.31;41.40
46291;BME280;32023;44.444;26.006;2023-04-07T10:34:55;100435.44;;;10.49;41.29
46291;BME280;32023;44.444;26.006;2023-04-07T10:37:36;100435.97;;;11.00;41.68
46291;BME280;32023;44.444;26.006;2023-04-07T10:43:07;100422.84;;;13.20;36.39
46291;BME280;32023;44.444;26.006;2023-04-07T10:48:24;100439.53;;;11.96;38.15
46291;BME280;32023;44.444;26.006;2023-04-07T10:51:11;100444.13;;;11.48;38.81
46291;BME280;32023;44.444;26.006;2023-04-07T10:54:21;100442.84;;;10.97;39.40
46291;BME280;32023;44.444;26.006;2023-04-07T11:02:53;100447.22;;;11.20;40.13
46291;BME280;32023;44.444;26.006;2023-04-07T11:05:23;100447.63;;;11.07;39.95
46291;BME280;32023;44.444;26.006;2023-04-07T11:07:51;100448.13;;;10.99;40.01
46291;BME280;32023;44.444;26.006;2023-04-07T11:10:20;100447.50;;;11.24;40.15
46291;BME280;32023;44.444;26.006;2023-04-07T11:13:04;100460.84;;;11.37;40.68
46291;BME280;32023;44.444;26.006;2023-04-07T11:15:35;100443.91;;;10.91;39.42
46291;BME280;32023;44.444;26.006;2023-04-07T11:18:19;100452.94;;;10.87;41.05
46291;BME280;32023;44.444;26.006;2023-04-07T11:21:02;100449.22;;;11.03;40.14
46291;BME280;32023;44.444;26.006;2023-04-07T11:26:23;100451.88;;;11.20;40.72
46291;BME280;32023;44.444;26.006;2023-04-07T11:28:54;100440.56;;;13.39;36.94
46291;BME280;32023;44.444;26.006;2023-04-07T11:31:33;100445.00;;;15.09;32.83
46291;BME280;32023;44.444;26.006;2023-04-07T11:34:09;100433.97;;;16.72;29.34
46291;BME280;32023;44.444;26.006;2023-04-07T11:36:42;100418.84;;;18.40;27.70
46291;BME280;32023;44.444;26.006;2023-04-07T11:39:19;100424.84;;;19.90;25.33
46291;BME280;32023;44.444;26.006;2023-04-07T11:41:50;100435.06;;;19.95;24.49
46291;BME280;32023;44.444;26.006;2023-04-07T11:44:16;100433.22;;;18.19;26.74
46291;BME280;32023;44.444;26.006;2023-04-07T11:46:54;100439.91;;;16.42;29.71
46291;BME280;32023;44.444;26.006;2023-04-07T11:49:28;100445.06;;;15.38;31.27
46291;BME280;32023;44.444;26.006;2023-04-07T11:52:01;100439.22;;;14.52;33.02
46291;BME280;32023;44.444;26.006;2023-04-07T11:54:46;100444.34;;;13.99;33.97
46291;BME280;32023;44.444;26.006;2023-04-07T11:57:34;100432.22;;;13.44;34.84
46291;BME280;32023;44.444;26.006;2023-04-07T12:00:19;100438.00;;;12.97;36.02
46291;BME280;32023;44.444;26.006;2023-04-07T12:03:09;100442.59;;;12.62;37.14
46291;BME280;32023;44.444;26.006;2023-04-07T12:05:51;100446.44;;;12.55;37.38
46291;BME280;32023;44.444;26.006;2023-04-07T12:08:35;100435.59;;;12.39;36.91
46291;BME280;32023;44.444;26.006;2023-04-07T12:11:05;100457.13;;;11.90;37.55
46291;BME280;32023;44.444;26.006;2023-04-07T12:13:57;100455.97;;;11.44;37.92
46291;BME280;32023;44.444;26.006;2023-04-07T12:16:48;100454.41;;;11.26;38.77
46291;BME280;32023;44.444;26.006;2023-04-07T12:19:36;100480.28;;;11.20;39.13
46291;BME280;32023;44.444;26.006;2023-04-07T12:22:06;100472.06;;;11.25;39.07
46291;BME280;32023;44.444;26.006;2023-04-07T12:24:42;100454.25;;;11.06;39.27
46291;BME280;32023;44.444;26.006;2023-04-07T12:27:09;100460.22;;;10.98;39.84
46291;BME280;32023;44.444;26.006;2023-04-07T12:29:36;100463.44;;;10.90;40.30
46291;BME280;32023;44.444;26.006;2023-04-07T12:32:20;100473.84;;;10.83;41.14
46291;BME280;32023;44.444;26.006;2023-04-07T12:34:46;100462.34;;;10.64;41.14
46291;BME280;32023;44.444;26.006;2023-04-07T12:37:25;100474.81;;;10.28;42.36
46291;BME280;32023;44.444;26.006;2023-04-07T12:39:55;100465.03;;;9.99;43.87
46291;BME280;32023;44.444;26.006;2023-04-07T12:42:33;100466.69;;;10.00;44.22
46291;BME280;32023;44.444;26.006;2023-04-07T12:45:03;100473.28;;;9.99;44.29
46291;BME280;32023;44.444;26.006;2023-04-07T12:47:31;100464.19;;;9.98;43.63
46291;BME280;32023;44.444;26.006;2023-04-07T12:49:59;100469.97;;;9.97;44.24
46291;BME280;32023;44.444;26.006;2023-04-07T12:52:26;100469.19;;;10.01;43.62
46291;BME280;32023;44.444;26.006;2023-04-07T12:54:53;100474.13;;;9.99;43.82
46291;BME280;32023;44.444;26.006;2023-04-07T12:57:22;100478.56;;;9.84;44.07
46291;BME280;32023;44.444;26.006;2023-04-07T12:59:49;100483.91;;;9.57;44.33
46291;BME280;32023;44.444;26.006;2023-04-07T13:02:17;100482.31;;;9.44;45.13
46291;BME280;32023;44.444;26.006;2023-04-07T13:04:46;100467.19;;;9.25;46.06
46291;BME280;32023;44.444;26.006;2023-04-07T13:07:18;100476.97;;;9.71;45.49
46291;BME280;32023;44.444;26.006;2023-04-07T13:09:44;100482.22;;;9.89;45.42
46291;BME280;32023;44.444;26.006;2023-04-07T13:12:26;100492.03;;;10.02;45.49
46291;BME280;32023;44.444;26.006;2023-04-07T13:14:53;100494.78;;;10.02;45.04
46291;BME280;32023;44.444;26.006;2023-04-07T13:17:25;100489.78;;;10.16;44.79
46291;BME280;32023;44.444;26.006;2023-04-07T13:19:54;100490.31;;;10.34;44.28
46291;BME280;32023;44.444;26.006;2023-04-07T13:22:26;100491.97;;;10.35;44.13
46291;BME280;32023;44.444;26.006;2023-04-07T13:24:55;100503.50;;;10.32;43.59
46291;BME280;32023;44.444;26.006;2023-04-07T13:27:23;100508.22;;;10.37;44.34
46291;BME280;32023;44.444;26.006;2023-04-07T13:29:53;100498.69;;;10.23;44.79
46291;BME280;32023;44.444;26.006;2023-04-07T13:32:19;100494.91;;;10.29;44.94
46291;BME280;32023;44.444;26.006;2023-04-07T13:34:48;100506.75;;;10.29;44.45
46291;BME280;32023;44.444;26.006;2023-04-07T13:37:14;100500.94;;;10.26;44.28
46291;BME280;32023;44.444;26.006;2023-04-07T13:40:07;100504.56;;;10.31;44.80
46291;BME280;32023;44.444;26.006;2023-04-07T13:42:38;100508.44;;;10.30;45.36
46291;BME280;32023;44.444;26.006;2023-04-07T13:45:04;100510.75;;;10.38;45.45
46291;BME280;32023;44.444;26.006;2023-04-07T13:47:32;100513.81;;;10.42;44.39
46291;BME280;32023;44.444;26.006;2023-04-07T13:50:00;100506.44;;;10.26;44.68
46291;BME280;32023;44.444;26.006;2023-04-07T13:52:26;100523.13;;;10.19;44.58